Time;durP1;ratioP1;P1;durP2;ratioP2;P2;SDS_P1;SDS_P2;PMS_P1;PMS_P2;Temp;Humidity;BMP_temperature;BMP_pressure;BME280_temperature;BME280_humidity;BME280_pressure;Samples;Min_cycle;Max_cycle;Signal;HPM_P1;HPM_P2
2023/05/01 00:01:11;;;;;;;31.40;20.80;;;;;;;9.90;62.75;100203.36;106279;1279;61452;-93
2023/05/01 00:03:38;;;;;;;28.70;20.00;;;;;;;9.85;62.73;100202.23;106347;1280;61367;-91
2023/05/01 00:06:06;;;;;;;36.10;24.40;;;;;;;9.79;62.68;100200.45;106327;1280;75417;-90
2023/05/01 00:08:34;;;;;;;40.80;25.40;;;;;;;9.73;62.58;100201.75;106241;1278;73902;-91
2023/05/01 00:11:02;;;;;;;39.60;24.20;;;;;;;9.66;62.56;100202.80;106315;1282;72700;-91
2023/05/01 00:13:30;;;;;;;40.30;25.00;;;;;;;9.51;62.45;100205.05;106300;1279;62980;-90
2023/05/01 00:15:58;;;;;;;36.10;23.90;;;;;;;9.37;62.58;100209.95;106302;1280;61231;-91
2023/05/01 00:18:25;;;;;;;40.70;24.80;;;;;;;9.29;62.60;100207.38;106290;1280;74426;-91
2023/05/01 00:20:52;;;;;;;40.00;24.40;;;;;;;9.21;62.58;100206.52;106300;1282;71981;-90
2023/05/01 00:23:19;;;;;;;39.10;24.60;;;;;;;9.12;62.58;100209.17;106287;1280;73831;-90
2023/05/01 00:25:46;;;;;;;43.10;25.20;;;;;;;9.06;62.58;100214.31;106308;1280;61133;-90
2023/05/01 00:28:14;;;;;;;38.70;23.00;;;;;;;9.02;62.56;100214.54;106264;1279;61137;-91
2023/05/01 00:30:41;;;;;;;33.70;20.40;;;;;;;8.97;62.62;100219.09;106321;1280;73109;-90
2023/05/01 00:33:08;;;;;;;30.40;18.50;;;;;;;8.92;62.70;100219.31;106281;1279;73649;-91
2023/05/01 00:35:38;;;;;;;31.60;17.00;;;;;;;8.89;62.62;100222.70;106191;1279;71564;-92
2023/05/01 00:38:06;;;;;;;22.90;13.10;;;;;;;8.86;62.53;100227.88;106478;1280;61230;-90
2023/05/01 00:40:41;;;;;;;24.10;14.10;;;;;;;8.82;62.58;100232.05;106277;1279;61180;-91
2023/05/01 00:43:10;;;;;;;23.20;14.50;;;;;;;8.77;62.63;100233.50;106230;1279;74749;-90
2023/05/01 00:45:38;;;;;;;28.90;16.40;;;;;;;8.73;62.64;100235.66;106224;1279;74125;-91
2023/05/01 00:48:05;;;;;;;28.80;17.10;;;;;;;8.70;62.78;100239.66;106175;1280;73466;-91
2023/05/01 00:50:32;;;;;;;27.00;17.60;;;;;;;8.69;62.97;100238.75;106295;1279;61378;-91
2023/05/01 00:52:59;;;;;;;27.60;17.20;;;;;;;8.75;63.20;100241.58;106263;1279;61160;-92
2023/05/01 00:55:27;;;;;;;29.00;16.30;;;;;;;8.77;63.46;100240.17;106291;1280;75668;-92
2023/05/01 00:57:55;;;;;;;24.70;15.80;;;;;;;8.83;63.56;100240.27;106274;1279;73616;-90
2023/05/01 01:00:23;;;;;;;30.80;16.30;;;;;;;8.87;63.70;100242.98;106209;1279;73810;-92
2023/05/01 01:02:51;;;;;;;26.10;15.70;;;;;;;8.92;63.80;100242.75;106298;1280;62973;-92
2023/05/01 01:05:18;;;;;;;26.90;16.80;;;;;;;8.99;64.18;100239.45;106273;1280;61152;-91
2023/05/01 01:08:19;;;;;;;23.40;14.30;;;;;;;9.05;64.59;100237.95;106224;1280;75489;-92
2023/05/01 01:10:50;;;;;;;26.10;16.60;;;;;;;9.11;65.09;100239.13;106072;1280;73864;-91
2023/05/01 01:13:27;;;;;;;22.50;15.80;;;;;;;9.19;65.37;100237.41;106140;1279;73184;-91
2023/05/01 01:16:05;;;;;;;25.20;16.40;;;;;;;9.29;65.47;100235.73;106595;1280;62055;-92
2023/05/01 01:18:37;;;;;;;22.70;15.60;;;;;;;9.39;65.47;100235.48;106267;1280;61233;-89
2023/05/01 01:21:27;;;;;;;22.10;14.00;;;;;;;9.45;65.37;100234.19;106269;1280;74743;-90
2023/05/01 01:24:32;;;;;;;22.20;14.90;;;;;;;9.52;65.19;100232.90;106246;1279;74064;-91
2023/05/01 01:27:45;;;;;;;22.70;14.30;;;;;;;9.61;65.01;100228.70;106253;1279;73723;-91
2023/05/01 01:30:30;;;;;;;24.90;14.90;;;;;;;9.67;64.89;100227.96;106180;1280;63212;-90
2023/05/01 01:33:00;;;;;;;17.70;12.20;;;;;;;9.74;64.84;100228.54;106193;1282;61285;-91
2023/05/01 01:35:28;;;;;;;19.70;11.30;;;;;;;9.80;64.58;100232.73;106228;1280;75905;-91
2023/05/01 01:38:04;;;;;;;20.10;12.10;;;;;;;9.83;64.33;100232.11;105889;1288;73955;-91
2023/05/01 01:40:49;;;;;;;20.00;12.20;;;;;;;9.86;63.91;100237.49;106126;1280;73937;-92
2023/05/01 01:43:16;;;;;;;18.70;12.20;;;;;;;9.87;63.46;100241.45;106184;1280;61147;-92
2023/05/01 01:45:46;;;;;;;20.50;12.00;;;;;;;9.86;63.06;100250.84;106047;1280;60897;-90
2023/05/01 01:48:17;;;;;;;17.00;11.80;;;;;;;9.84;62.68;100257.94;106238;1280;73801;-92
2023/05/01 01:50:44;;;;;;;19.20;11.50;;;;;;;9.82;62.52;100263.95;106096;1280;72717;-90
2023/05/01 01:53:14;;;;;;;17.40;10.90;;;;;;;9.81;62.43;100251.78;106125;1279;71470;-91
2023/05/01 01:55:41;;;;;;;14.50;10.30;;;;;;;9.81;62.26;100249.55;106226;1279;62598;-91
2023/05/01 01:58:09;;;;;;;18.90;12.20;;;;;;;9.83;62.18;100247.95;106092;1280;61208;-92
2023/05/01 02:00:36;;;;;;;18.50;13.80;;;;;;;9.85;62.08;100250.52;105937;1279;74529;-91
2023/05/01 02:03:05;;;;;;;23.30;15.60;;;;;;;9.86;62.04;100249.13;105818;1280;73845;-90
2023/05/01 02:05:34;;;;;;;22.90;16.10;;;;;;;9.82;62.05;100248.37;106122;1283;72184;-90
2023/05/01 02:08:01;;;;;;;22.20;15.90;;;;;;;9.77;62.01;100258.05;106213;1279;62465;-91
2023/05/01 02:10:28;;;;;;;22.90;15.70;;;;;;;9.71;62.00;100260.69;105901;1286;61367;-91
2023/05/01 02:12:59;;;;;;;21.40;16.40;;;;;;;9.62;62.00;100264.36;106314;1279;73999;-90
2023/05/01 02:15:26;;;;;;;22.00;15.10;;;;;;;9.54;62.09;100265.08;106000;1280;73153;-91
2023/05/01 02:17:53;;;;;;;25.50;15.30;;;;;;;9.46;62.30;100265.48;106269;1280;73959;-89
2023/05/01 02:20:21;;;;;;;19.50;14.40;;;;;;;9.38;62.40;100274.45;106300;1280;62752;-90
2023/05/01 02:22:49;;;;;;;21.70;15.70;;;;;;;9.31;62.55;100283.94;106216;1280;61205;-90
2023/05/01 02:25:16;;;;;;;22.80;15.50;;;;;;;9.25;62.68;100290.70;105861;1285;75119;-90
2023/05/01 02:27:49;;;;;;;20.40;15.80;;;;;;;9.20;62.87;100287.25;106128;1280;72349;-89
2023/05/01 02:30:17;;;;;;;22.40;15.70;;;;;;;9.14;62.99;100294.99;106104;1280;71651;-91
2023/05/01 02:32:44;;;;;;;21.00;15.50;;;;;;;9.12;63.23;100300.84;106197;1280;61967;-92
2023/05/01 02:35:11;;;;;;;21.60;14.50;;;;;;;9.11;63.42;100303.27;106236;1280;61262;-90
2023/05/01 02:37:38;;;;;;;22.20;14.40;;;;;;;9.11;63.51;100304.08;106009;1280;74395;-90
2023/05/01 02:40:06;;;;;;;20.60;13.70;;;;;;;9.12;63.65;100303.56;106108;1280;74029;-89
2023/05/01 02:42:34;;;;;;;18.60;12.10;;;;;;;9.14;63.67;100302.66;106232;1283;74887;-90
2023/05/01 02:45:10;;;;;;;18.60;13.20;;;;;;;9.18;63.63;100301.05;106179;1280;61132;-89
2023/05/01 02:47:38;;;;;;;17.50;11.60;;;;;;;9.22;63.70;100302.25;106265;1279;61063;-91
2023/05/01 02:50:06;;;;;;;20.70;12.20;;;;;;;9.25;63.61;100305.90;106107;1279;73883;-91
2023/05/01 02:52:33;;;;;;;16.00;10.80;;;;;;;9.29;63.52;100308.91;106041;1280;73942;-91
2023/05/01 02:55:21;;;;;;;13.50;8.30;;;;;;;9.35;63.38;100314.89;106289;1280;73960;-90
2023/05/01 02:57:50;;;;;;;11.80;7.10;;;;;;;9.41;63.30;100319.25;106274;1280;62960;-89
2023/05/01 03:00:17;;;;;;;11.60;7.20;;;;;;;9.50;63.16;100316.92;106209;1280;61201;-90
2023/05/01 03:02:44;;;;;;;9.30;6.40;;;;;;;9.57;62.95;100313.99;106299;1283;75895;-91
2023/05/01 03:05:11;;;;;;;10.90;6.80;;;;;;;9.66;62.80;100316.77;106259;1280;72213;-91
2023/05/01 03:07:38;;;;;;;9.80;6.40;;;;;;;9.76;62.64;100319.44;106287;1280;73700;-89
2023/05/01 03:10:09;;;;;;;8.70;5.80;;;;;;;9.84;62.53;100322.75;106244;1280;63052;-91
2023/05/01 03:12:36;;;;;;;9.10;5.70;;;;;;;9.91;62.37;100331.70;106328;1280;61664;-90
2023/05/01 03:15:03;;;;;;;8.70;5.50;;;;;;;9.97;62.44;100326.94;106352;1280;75880;-91
2023/05/01 03:17:31;;;;;;;9.90;5.40;;;;;;;10.03;62.43;100330.34;106258;1280;73199;-91
2023/05/01 03:19:58;;;;;;;9.00;4.80;;;;;;;10.10;62.52;100335.06;106265;1280;73123;-91
2023/05/01 03:22:28;;;;;;;7.30;4.80;;;;;;;10.17;62.52;100342.89;106297;1280;60608;-90
2023/05/01 03:24:55;;;;;;;7.30;4.70;;;;;;;10.24;62.73;100338.29;106369;1280;62382;-92
2023/05/01 03:27:22;;;;;;;7.20;4.10;;;;;;;10.30;62.83;100340.33;106124;1284;75626;-91
2023/05/01 03:29:49;;;;;;;7.20;3.90;;;;;;;10.39;62.95;100344.90;106210;1279;73935;-91
2023/05/01 03:32:16;;;;;;;8.10;3.70;;;;;;;10.50;63.04;100341.15;106129;1280;70571;-90
2023/05/01 03:34:45;;;;;;;6.70;4.10;;;;;;;10.62;63.11;100347.13;106165;1286;62340;-91
2023/05/01 03:37:12;;;;;;;6.10;3.90;;;;;;;10.77;63.15;100349.73;106186;1280;61233;-91
2023/05/01 03:39:39;;;;;;;5.40;3.40;;;;;;;10.92;63.14;100347.20;106213;1280;75122;-91
2023/05/01 03:42:25;;;;;;;5.50;3.80;;;;;;;11.13;63.06;100349.54;106142;1280;71024;-91
2023/05/01 03:44:56;;;;;;;6.20;3.70;;;;;;;11.30;62.66;100354.80;106203;1279;72269;-91
2023/05/01 03:47:23;;;;;;;5.90;3.70;;;;;;;11.45;62.16;100353.46;106282;1282;61164;-91
2023/05/01 03:49:50;;;;;;;6.00;3.80;;;;;;;11.58;61.54;100356.94;106325;1279;61342;-91
2023/05/01 03:52:17;;;;;;;6.30;3.60;;;;;;;11.67;60.74;100359.71;106273;1279;75450;-91
2023/05/01 03:54:44;;;;;;;7.10;3.60;;;;;;;11.78;60.21;100360.79;106215;1279;73172;-90
2023/05/01 03:57:22;;;;;;;6.80;3.50;;;;;;;11.91;59.49;100364.33;106158;1280;70971;-92
2023/05/01 03:59:49;;;;;;;5.60;3.50;;;;;;;11.97;58.87;100367.85;106194;1279;62813;-92
2023/05/01 04:02:16;;;;;;;7.80;2.80;;;;;;;12.02;58.37;100364.63;106272;1279;61371;-92
2023/05/01 04:04:44;;;;;;;6.60;3.60;;;;;;;12.02;57.69;100373.67;106256;1280;76134;-92
2023/05/01 04:07:15;;;;;;;6.50;3.70;;;;;;;12.03;57.57;100376.67;106148;1280;73626;-91
2023/05/01 04:09:42;;;;;;;6.00;3.60;;;;;;;12.04;57.36;100377.69;106075;1279;73877;-93
2023/05/01 04:12:12;;;;;;;5.80;3.70;;;;;;;12.07;57.28;100383.42;106189;1279;61962;-91
2023/05/01 04:14:39;;;;;;;5.40;3.20;;;;;;;12.10;56.93;100382.76;106200;1279;61260;-91
2023/05/01 04:17:06;;;;;;;6.00;3.30;;;;;;;12.13;56.81;100385.33;106098;1280;75237;-92
2023/05/01 04:19:36;;;;;;;5.30;3.30;;;;;;;12.18;56.53;100392.42;105778;1280;72881;-93
2023/05/01 04:22:04;;;;;;;6.50;3.30;;;;;;;12.20;56.27;100392.81;106181;1280;71978;-91
2023/05/01 04:24:31;;;;;;;7.30;3.50;;;;;;;12.25;56.13;100395.10;106040;1280;61298;-91
2023/05/01 04:27:03;;;;;;;7.70;3.30;;;;;;;12.29;55.72;100393.31;106127;1279;61368;-91
2023/05/01 04:29:31;;;;;;;4.70;3.30;;;;;;;12.29;55.39;100398.18;106205;1285;75585;-90
2023/05/01 04:31:58;;;;;;;6.70;3.40;;;;;;;12.30;55.30;100400.59;106179;1280;73083;-90
2023/05/01 04:34:28;;;;;;;5.90;3.30;;;;;;;12.31;55.06;100396.36;106286;1280;72089;-91
2023/05/01 04:36:56;;;;;;;8.10;3.60;;;;;;;12.32;54.77;100394.49;106095;1280;62043;-90
2023/05/01 04:39:23;;;;;;;4.60;3.00;;;;;;;12.37;54.75;100398.28;106221;1282;61070;-91
2023/05/01 04:41:50;;;;;;;6.00;2.90;;;;;;;12.44;54.47;100403.28;106195;1279;73077;-89
2023/05/01 04:44:17;;;;;;;6.40;3.20;;;;;;;12.51;54.06;100412.05;106054;1279;72920;-89
2023/05/01 04:46:44;;;;;;;6.90;3.70;;;;;;;12.57;53.82;100411.50;106151;1280;70468;-92
2023/05/01 04:49:11;;;;;;;4.20;2.80;;;;;;;12.66;53.66;100409.75;106111;1280;60324;-91
2023/05/01 04:51:38;;;;;;;4.70;2.60;;;;;;;12.70;53.25;100413.17;106209;1279;61336;-93
2023/05/01 04:54:07;;;;;;;4.00;2.60;;;;;;;12.73;52.96;100417.02;106163;1280;73748;-92
2023/05/01 04:56:37;;;;;;;6.00;2.80;;;;;;;12.77;52.32;100425.41;106251;1282;74043;-92
2023/05/01 04:59:04;;;;;;;6.30;2.70;;;;;;;12.83;52.01;100421.90;106078;1280;73362;-89
2023/05/01 05:01:32;;;;;;;5.30;2.80;;;;;;;12.89;51.45;100421.48;106031;1279;61282;-91
2023/05/01 05:03:59;;;;;;;5.60;2.90;;;;;;;12.95;51.14;100422.39;106149;1280;60495;-88
2023/05/01 05:06:26;;;;;;;5.30;2.90;;;;;;;13.02;50.72;100423.42;106118;1279;72465;-92
2023/05/01 05:08:54;;;;;;;6.40;3.10;;;;;;;13.09;50.40;100422.64;106090;1285;73027;-88
2023/05/01 05:11:21;;;;;;;5.90;2.60;;;;;;;13.16;50.02;100424.30;106301;1279;72671;-90
2023/05/01 05:13:51;;;;;;;5.20;2.30;;;;;;;13.21;49.09;100436.08;106102;1280;59778;-91
2023/05/01 05:16:19;;;;;;;5.90;2.90;;;;;;;13.22;48.28;100433.23;106357;1278;61426;-92
2023/05/01 05:18:46;;;;;;;5.40;2.30;;;;;;;13.25;47.86;100442.40;106262;1280;74393;-92
2023/05/01 05:21:13;;;;;;;4.80;2.40;;;;;;;13.28;47.88;100443.35;106292;1279;73676;-93
2023/05/01 05:23:46;;;;;;;5.50;2.30;;;;;;;13.36;47.81;100444.44;106300;1280;74209;-90
2023/05/01 05:26:13;;;;;;;6.30;2.40;;;;;;;13.41;47.01;100451.80;106315;1280;61453;-93
2023/05/01 05:28:41;;;;;;;5.90;2.40;;;;;;;13.45;46.67;100455.38;106268;1280;61742;-89
2023/05/01 05:31:08;;;;;;;3.30;2.10;;;;;;;13.46;45.96;100454.52;106318;1280;74719;-92
2023/05/01 05:33:37;;;;;;;5.00;2.30;;;;;;;13.47;45.63;100458.48;106297;1279;73778;-92
2023/05/01 05:36:05;;;;;;;4.30;2.40;;;;;;;13.49;45.59;100456.39;106202;1279;72210;-92
2023/05/01 05:38:39;;;;;;;5.90;2.10;;;;;;;13.53;45.38;100468.27;106425;1278;60298;-93
2023/05/01 05:41:07;;;;;;;3.40;2.00;;;;;;;13.58;44.90;100469.20;106369;1280;61163;-90
2023/05/01 05:43:36;;;;;;;6.30;2.10;;;;;;;13.61;44.67;100479.59;106279;1279;74723;-92
2023/05/01 05:46:04;;;;;;;5.00;2.20;;;;;;;13.67;44.49;100484.44;106390;1279;71752;-91
2023/05/01 05:48:33;;;;;;;5.30;2.10;;;;;;;13.72;44.26;100490.14;106215;1279;73494;-91
2023/05/01 05:51:03;;;;;;;5.30;2.30;;;;;;;13.77;43.95;100488.65;106343;1280;61512;-91
2023/05/01 05:53:30;;;;;;;4.60;2.30;;;;;;;13.84;43.51;100500.59;106191;1285;61146;-90
2023/05/01 05:55:57;;;;;;;5.70;2.60;;;;;;;13.88;42.78;100499.58;106179;1280;74616;-92
2023/05/01 05:58:24;;;;;;;4.90;2.00;;;;;;;13.90;42.53;100500.48;106192;1280;72437;-91
2023/05/01 06:00:54;;;;;;;3.90;2.00;;;;;;;13.94;42.27;100495.14;106347;1279;71560;-92
2023/05/01 06:03:23;;;;;;;5.80;2.10;;;;;;;13.99;41.99;100500.05;105911;1280;60073;-89
2023/05/01 06:05:55;;;;;;;;;;;;;;;14.03;41.57;100509.67;106462;1279;61205;-90
2023/05/01 06:08:23;;;;;;;4.00;1.70;;;;;;;14.10;41.65;100508.55;106272;1279;74629;-92
2023/05/01 06:10:50;;;;;;;3.30;1.90;;;;;;;14.14;41.39;100517.96;106216;1279;73978;-91
2023/05/01 06:13:18;;;;;;;4.80;2.00;;;;;;;14.16;40.92;100521.88;106173;1279;73888;-93
2023/05/01 06:15:47;;;;;;;4.60;1.80;;;;;;;14.18;40.74;100516.44;106336;1279;60365;-92
2023/05/01 06:18:15;;;;;;;3.00;1.80;;;;;;;14.20;40.83;100518.41;106486;1280;61180;-92
2023/05/01 06:20:43;;;;;;;4.00;1.90;;;;;;;14.27;40.57;100528.54;106174;1280;74636;-95
2023/05/01 06:23:12;;;;;;;3.80;1.50;;;;;;;14.34;40.43;100531.23;106242;1282;72991;-93
2023/05/01 06:25:53;;;;;;;3.20;1.90;;;;;;;14.39;40.60;100532.15;106186;1285;70739;-93
2023/05/01 06:28:20;;;;;;;3.40;1.80;;;;;;;14.47;40.54;100536.48;106440;1279;60191;-93
2023/05/01 06:30:50;;;;;;;5.30;2.00;;;;;;;14.56;40.27;100535.63;106192;1279;142524;-92
2023/05/01 06:33:18;;;;;;;3.90;1.80;;;;;;;14.64;39.68;100546.24;106465;1279;74658;-93
2023/05/01 06:35:58;;;;;;;4.40;1.60;;;;;;;14.70;38.89;100548.05;106445;1280;73936;-93
2023/05/01 06:38:26;;;;;;;3.70;1.80;;;;;;;14.70;37.38;100558.02;106366;1279;73752;-91
2023/05/01 06:40:54;;;;;;;2.80;1.50;;;;;;;14.68;37.19;100547.92;106357;1280;59942;-91
2023/05/01 06:43:21;;;;;;;3.40;1.60;;;;;;;14.73;37.29;100546.00;106400;1279;60007;-93
2023/05/01 06:45:48;;;;;;;3.70;1.50;;;;;;;14.82;37.42;100547.89;106400;1279;74083;-91
2023/05/01 06:48:16;;;;;;;3.20;1.20;;;;;;;14.95;37.48;100561.14;106367;1279;73816;-87
2023/05/01 06:50:42;;;;;;;5.20;1.70;;;;;;;15.01;36.01;100559.09;106325;1280;73192;-94
2023/05/01 06:53:10;;;;;;;2.90;1.70;;;;;;;15.03;35.62;100546.95;106556;1279;61064;-92
2023/05/01 06:55:37;;;;;;;4.70;1.50;;;;;;;15.05;35.86;100551.45;106423;1279;61154;-92
2023/05/01 06:58:05;;;;;;;2.50;1.40;;;;;;;15.10;35.90;100558.06;106420;1279;74127;-93
2023/05/01 07:00:49;;;;;;;3.50;1.10;;;;;;;15.17;34.82;100558.57;106353;1279;74031;-90
2023/05/01 07:03:16;;;;;;;2.30;1.30;;;;;;;15.21;34.06;100560.41;106377;1279;72590;-91
2023/05/01 07:05:44;;;;;;;3.00;1.10;;;;;;;15.21;33.42;100561.98;106365;1279;61161;-91
2023/05/01 07:08:11;;;;;;;6.30;1.50;;;;;;;15.24;33.41;100560.27;106378;1280;60229;-89
2023/05/01 07:10:38;;;;;;;3.20;1.40;;;;;;;15.32;33.54;100565.49;106354;1279;75669;-92
2023/05/01 07:13:08;;;;;;;2.30;1.10;;;;;;;15.39;33.60;100570.89;106310;1280;74822;-93
2023/05/01 07:15:36;;;;;;;2.80;1.30;;;;;;;15.42;33.57;100571.23;106412;1279;73118;-89
2023/05/01 07:18:04;;;;;;;2.80;1.40;;;;;;;15.40;33.07;100580.41;106403;1279;61029;-88
2023/05/01 07:20:33;;;;;;;3.80;1.50;;;;;;;15.38;32.59;100582.02;106384;1279;61163;-89
2023/05/01 07:23:00;;;;;;;2.60;1.10;;;;;;;15.40;32.67;100584.29;106295;1280;74395;-94
2023/05/01 07:25:27;;;;;;;2.30;1.20;;;;;;;15.47;32.18;100584.36;106239;1280;74080;-89
2023/05/01 07:27:55;;;;;;;3.10;1.10;;;;;;;15.55;31.19;100590.83;106214;1282;72894;-88
2023/05/01 07:30:22;;;;;;;1.20;0.70;;;;;;;15.63;29.25;100593.46;106090;1279;61144;-89
2023/05/01 07:32:49;;;;;;;1.70;0.70;;;;;;;15.68;28.25;100596.40;106166;1279;61208;-87
2023/05/01 07:35:16;;;;;;;2.40;0.70;;;;;;;15.72;27.48;100605.07;106103;1279;75896;-89
2023/05/01 07:37:43;;;;;;;1.60;0.70;;;;;;;15.76;27.12;100619.72;105978;1280;72232;-88
2023/05/01 07:40:10;;;;;;;2.70;0.90;;;;;;;15.78;26.77;100604.01;106321;1280;74038;-88
2023/05/01 07:42:38;;;;;;;3.20;1.00;;;;;;;15.79;26.85;100605.73;106221;1278;61298;-88
2023/05/01 07:45:06;;;;;;;2.30;0.80;;;;;;;15.82;26.23;100616.46;106311;1280;61064;-87
2023/05/01 07:47:33;;;;;;;1.70;0.80;;;;;;;15.82;26.30;100613.61;106229;1279;74750;-89
2023/05/01 07:50:03;;;;;;;6.20;0.80;;;;;;;15.79;26.43;100620.32;106240;1279;71619;-88
2023/05/01 07:52:31;;;;;;;1.80;0.80;;;;;;;15.79;26.32;100625.33;106203;1279;73823;-89
2023/05/01 07:54:58;;;;;;;1.40;0.80;;;;;;;15.83;26.24;100623.17;106250;1279;61260;-89
2023/05/01 07:57:25;;;;;;;2.40;0.80;;;;;;;15.88;25.70;100623.54;106232;1282;61144;-89
2023/05/01 07:59:55;;;;;;;2.50;1.00;;;;;;;15.93;25.43;100634.52;106100;1279;76296;-88
2023/05/01 08:02:23;;;;;;;2.30;0.80;;;;;;;15.94;25.74;100624.86;105823;1280;73658;-88
2023/05/01 08:04:50;;;;;;;1.30;0.90;;;;;;;15.95;26.75;100624.19;106122;1279;71878;-89
2023/05/01 08:07:18;;;;;;;2.60;1.10;;;;;;;16.02;26.83;100631.05;106170;1280;61193;-90
2023/05/01 08:09:45;;;;;;;2.70;1.00;;;;;;;16.09;26.46;100626.58;106242;1280;61440;-89
2023/05/01 08:12:12;;;;;;;4.10;0.80;;;;;;;16.13;26.64;100636.43;106218;1279;75734;-90
2023/05/01 08:14:39;;;;;;;2.40;0.90;;;;;;;16.17;26.62;100636.49;106135;1279;73895;-91
2023/05/01 08:17:06;;;;;;;2.50;0.70;;;;;;;16.19;26.64;100636.79;106213;1279;72300;-89
2023/05/01 08:19:34;;;;;;;2.90;1.00;;;;;;;16.22;26.13;100648.16;106181;1282;61532;-88
2023/05/01 08:22:01;;;;;;;2.90;0.90;;;;;;;16.25;26.16;100640.04;106217;1279;61313;-90
2023/05/01 08:24:28;;;;;;;1.80;1.00;;;;;;;16.28;26.41;100641.49;106343;1280;74923;-91
2023/05/01 08:26:55;;;;;;;3.80;0.90;;;;;;;16.32;26.46;100647.42;106259;1279;72600;-89
2023/05/01 08:29:22;;;;;;;2.60;0.80;;;;;;;16.34;26.01;100645.45;106182;1280;73864;-89
2023/05/01 08:31:50;;;;;;;2.80;1.00;;;;;;;16.37;25.76;100662.88;106165;1278;61272;-90
2023/05/01 08:34:18;;;;;;;3.20;1.00;;;;;;;16.39;25.13;100652.45;106264;1279;61291;-88
2023/05/01 08:36:44;;;;;;;3.60;1.10;;;;;;;16.38;25.28;100644.63;106247;1279;73725;-91
2023/05/01 08:39:11;;;;;;;1.80;0.80;;;;;;;16.45;25.60;100649.80;106270;1279;71731;-89
2023/05/01 08:41:46;;;;;;;2.60;0.70;;;;;;;16.51;25.60;100643.91;106302;1279;73865;-89
2023/05/01 08:44:15;;;;;;;3.50;1.00;;;;;;;16.60;25.99;100645.15;105939;1279;61507;-89
2023/05/01 08:47:05;;;;;;;1.90;0.90;;;;;;;16.71;25.62;100656.90;106110;1278;61278;-89
2023/05/01 08:49:33;;;;;;;1.70;0.90;;;;;;;16.81;24.99;100642.08;106324;1280;75919;-89
2023/05/01 08:52:01;;;;;;;2.20;0.80;;;;;;;16.89;25.57;100649.81;106231;1280;74019;-91
2023/05/01 08:54:29;;;;;;;3.20;0.80;;;;;;;16.94;24.81;100659.92;106299;1280;73781;-91
2023/05/01 08:57:01;;;;;;;2.30;0.80;;;;;;;16.90;24.31;100663.83;106298;1279;61359;-90
2023/05/01 08:59:33;;;;;;;2.30;0.70;;;;;;;16.89;24.00;100655.05;106312;1279;61319;-91
2023/05/01 09:02:01;;;;;;;1.70;0.80;;;;;;;16.91;23.90;100661.11;106271;1279;74456;-92
2023/05/01 09:04:31;;;;;;;2.50;0.80;;;;;;;16.94;24.17;100664.20;106344;1279;72950;-90
2023/05/01 09:06:59;;;;;;;2.40;0.80;;;;;;;16.98;24.19;100661.52;106299;1279;72633;-89
2023/05/01 09:09:30;;;;;;;1.10;0.60;;;;;;;17.01;23.57;100675.23;106313;1278;61208;-91
2023/05/01 09:12:00;;;;;;;2.40;0.80;;;;;;;16.99;23.69;100663.19;106302;1280;61288;-89
2023/05/01 09:14:28;;;;;;;2.10;0.60;;;;;;;17.00;24.02;100675.58;106330;1279;74217;-91
2023/05/01 09:16:55;;;;;;;3.30;0.90;;;;;;;17.06;23.95;100674.39;106251;1284;72816;-91
2023/05/01 09:19:23;;;;;;;1.70;0.70;;;;;;;17.11;23.49;100668.31;106294;1280;72507;-90
2023/05/01 09:21:50;;;;;;;2.30;0.60;;;;;;;17.12;23.38;100668.35;106175;1280;60325;-89
2023/05/01 09:24:17;;;;;;;2.20;0.80;;;;;;;17.16;22.96;100675.85;106272;1279;61756;-91
2023/05/01 09:26:44;;;;;;;1.50;0.70;;;;;;;17.22;22.97;100674.05;106265;1279;74084;-90
2023/05/01 09:29:13;;;;;;;2.70;0.70;;;;;;;17.28;23.17;100674.04;106209;1279;72254;-89
2023/05/01 09:31:40;;;;;;;1.40;0.70;;;;;;;17.39;23.13;100676.96;106116;1278;72964;-89
2023/05/01 09:34:08;;;;;;;4.70;1.10;;;;;;;17.47;23.07;100685.35;106318;1279;61275;-90
2023/05/01 09:36:39;;;;;;;3.90;1.00;;;;;;;17.47;23.22;100683.29;106375;1279;61064;-88
2023/05/01 09:39:06;;;;;;;1.20;0.70;;;;;;;17.46;23.01;100688.82;106126;1280;75946;-88
2023/05/01 09:41:33;;;;;;;3.40;0.80;;;;;;;17.42;22.77;100684.37;106177;1279;74504;-89
2023/05/01 09:44:00;;;;;;;2.40;0.80;;;;;;;17.38;22.32;100681.80;106197;1280;71934;-87
2023/05/01 09:46:28;;;;;;;2.60;0.80;;;;;;;17.35;22.36;100700.90;106175;1279;61534;-88
2023/05/01 09:48:59;;;;;;;1.20;0.70;;;;;;;17.33;22.37;100687.21;106023;1279;61720;-87
2023/05/01 09:51:28;;;;;;;1.90;0.80;;;;;;;17.31;22.20;100690.95;106118;1279;74845;-89
2023/05/01 09:53:59;;;;;;;3.80;0.70;;;;;;;17.34;22.59;100693.04;106258;1280;72962;-91
2023/05/01 09:56:31;;;;;;;3.10;0.90;;;;;;;17.35;22.98;100689.52;106295;1279;71540;-90
2023/05/01 09:59:15;;;;;;;3.70;0.90;;;;;;;17.42;23.43;100698.73;106291;1280;60531;-93
2023/05/01 10:01:43;;;;;;;1.20;0.80;;;;;;;17.47;22.70;100710.57;106245;1280;61808;-88
2023/05/01 10:04:11;;;;;;;0.70;0.70;;;;;;;17.49;23.02;100705.58;106313;1279;74117;-90
2023/05/01 10:06:38;;;;;;;3.40;0.90;;;;;;;17.52;22.75;100698.75;106273;1279;73345;-90
2023/05/01 10:09:06;;;;;;;2.60;0.80;;;;;;;17.57;23.06;100703.36;106272;1279;72677;-90
2023/05/01 10:11:51;;;;;;;1.70;0.80;;;;;;;17.63;23.16;100708.05;106269;1282;61186;-91
2023/05/01 10:14:19;;;;;;;1.60;0.80;;;;;;;17.67;23.83;100705.66;106298;1279;61154;-91
2023/05/01 10:16:46;;;;;;;2.40;0.90;;;;;;;17.71;22.80;100712.06;106227;1280;73752;-91
2023/05/01 10:19:13;;;;;;;1.40;0.80;;;;;;;17.71;22.38;100706.77;106324;1279;73351;-88
2023/05/01 10:21:41;;;;;;;1.70;1.00;;;;;;;17.72;22.53;100707.17;106050;1278;72497;-88
2023/05/01 10:24:09;;;;;;;2.10;0.90;;;;;;;17.75;22.53;100711.33;106256;1280;61186;-89
2023/05/01 10:26:36;;;;;;;2.40;0.70;;;;;;;17.78;22.48;100708.80;106221;1281;61391;-90
2023/05/01 10:29:04;;;;;;;3.40;1.10;;;;;;;17.81;22.88;100703.33;106097;1280;73881;-91
2023/05/01 10:31:32;;;;;;;2.50;0.80;;;;;;;17.90;23.31;100710.13;106218;1279;73901;-89
2023/05/01 10:34:00;;;;;;;3.70;1.10;;;;;;;17.96;22.49;100705.88;106301;1279;73051;-89
2023/05/01 10:36:32;;;;;;;1.80;0.80;;;;;;;17.96;22.35;100707.45;106281;1278;61790;-90
2023/05/01 10:38:59;;;;;;;1.30;0.80;;;;;;;17.97;22.62;100711.05;106300;1279;61346;-89
2023/05/01 10:41:57;;;;;;;3.00;1.00;;;;;;;17.94;22.10;100702.98;106318;1280;75893;-90
2023/05/01 10:44:27;;;;;;;3.10;0.90;;;;;;;17.98;22.89;100705.36;106263;1278;74468;-91
2023/05/01 10:46:54;;;;;;;2.10;0.70;;;;;;;18.08;22.57;100712.07;106164;1280;72654;-91
2023/05/01 10:49:21;;;;;;;1.30;0.90;;;;;;;18.11;22.49;100708.44;106213;1280;61494;-89
2023/05/01 10:52:02;;;;;;;4.10;1.00;;;;;;;18.15;22.85;100704.47;106228;1279;60212;-88
2023/05/01 10:54:33;;;;;;;2.10;0.70;;;;;;;18.18;22.47;100718.17;106201;1279;74682;-88
2023/05/01 10:57:02;;;;;;;1.30;0.80;;;;;;;18.15;22.41;100716.96;106154;1279;72651;-92
2023/05/01 10:59:57;;;;;;;3.10;0.90;;;;;;;17.98;23.36;100721.23;106186;1279;72158;-90
2023/05/01 11:02:26;;;;;;;1.80;0.90;;;;;;;17.68;23.81;100719.24;106214;1280;61448;-91
2023/05/01 11:04:54;;;;;;;2.00;1.00;;;;;;;18.21;23.33;100711.94;106272;1279;61150;-93
2023/05/01 11:07:23;;;;;;;1.30;0.80;;;;;;;18.36;23.18;100713.87;106288;1279;74613;-91
2023/05/01 11:09:56;;;;;;;1.80;1.00;;;;;;;18.37;22.60;100711.59;106279;1279;74060;-91
2023/05/01 11:12:45;;;;;;;2.30;0.80;;;;;;;18.35;23.24;100719.63;106247;1278;73663;-92
2023/05/01 11:15:29;;;;;;;1.70;1.00;;;;;;;18.41;23.09;100719.06;106294;1280;61307;-92
2023/05/01 11:17:56;;;;;;;1.70;1.00;;;;;;;18.46;22.91;100722.59;106194;1280;61173;-92
2023/05/01 11:20:23;;;;;;;2.50;0.90;;;;;;;18.46;22.00;100721.92;106316;1280;75745;-92
2023/05/01 11:22:51;;;;;;;3.30;1.00;;;;;;;18.44;22.30;100717.80;106216;1279;72570;-92
2023/05/01 11:25:21;;;;;;;1.80;0.90;;;;;;;18.45;22.29;100717.73;106195;1280;73754;-91